sensor_id;sensor_type;location;lat;lon;timestamp;P1;durP1;ratioP1;P2;durP2;ratioP2
9422;SDS011;65863;49.506;10.400;2024-03-23T00:53:51;5.77;;;5.07;;
9422;SDS011;65863;49.506;10.400;2024-03-23T00:56:35;6.93;;;4.67;;
9422;SDS011;65863;49.506;10.400;2024-03-23T00:59:19;5.17;;;4.40;;
9422;SDS011;65863;49.506;10.400;2024-03-23T01:02:05;8.10;;;5.10;;
9422;SDS011;65863;49.506;10.400;2024-03-23T01:04:49;6.97;;;4.83;;
9422;SDS011;65863;49.506;10.400;2024-03-23T01:07:32;8.77;;;4.90;;
9422;SDS011;65863;49.506;10.400;2024-03-23T01:10:16;5.33;;;4.83;;
9422;SDS011;65863;49.506;10.400;2024-03-23T01:13:00;6.90;;;4.60;;
9422;SDS011;65863;49.506;10.400;2024-03-23T01:15:48;7.40;;;4.43;;
9422;SDS011;65863;49.506;10.400;2024-03-23T01:18:32;9.77;;;5.00;;
9422;SDS011;65863;49.506;10.400;2024-03-23T01:21:16;6.27;;;4.70;;
9422;SDS011;65863;49.506;10.400;2024-03-23T01:24:00;5.90;;;4.50;;
9422;SDS011;65863;49.506;10.400;2024-03-23T01:26:44;8.37;;;4.53;;
9422;SDS011;65863;49.506;10.400;2024-03-23T01:29:28;6.73;;;4.73;;
9422;SDS011;65863;49.506;10.400;2024-03-23T01:32:12;8.47;;;4.60;;
9422;SDS011;65863;49.506;10.400;2024-03-23T01:34:56;5.30;;;4.63;;
9422;SDS011;65863;49.506;10.400;2024-03-23T01:37:40;7.03;;;5.00;;
9422;SDS011;65863;49.506;10.400;2024-03-23T01:40:24;5.83;;;4.87;;
9422;SDS011;65863;49.506;10.400;2024-03-23T01:43:08;5.67;;;4.50;;
9422;SDS011;65863;49.506;10.400;2024-03-23T01:45:52;5.63;;;4.80;;
9422;SDS011;65863;49.506;10.400;2024-03-23T01:48:36;6.97;;;4.87;;
9422;SDS011;65863;49.506;10.400;2024-03-23T01:51:21;5.70;;;5.07;;
9422;SDS011;65863;49.506;10.400;2024-03-23T01:54:07;6.47;;;4.93;;
9422;SDS011;65863;49.506;10.400;2024-03-23T01:56:52;5.87;;;4.63;;
9422;SDS011;65863;49.506;10.400;2024-03-23T01:59:38;6.57;;;5.03;;
9422;SDS011;65863;49.506;10.400;2024-03-23T02:02:22;9.57;;;5.47;;
9422;SDS011;65863;49.506;10.400;2024-03-23T02:05:06;5.13;;;4.63;;
9422;SDS011;65863;49.506;10.400;2024-03-23T02:07:52;6.07;;;4.80;;
9422;SDS011;65863;49.506;10.400;2024-03-23T02:10:36;6.03;;;4.90;;
9422;SDS011;65863;49.506;10.400;2024-03-23T02:13:20;8.80;;;4.70;;
9422;SDS011;65863;49.506;10.400;2024-03-23T02:16:04;5.10;;;4.43;;
9422;SDS011;65863;49.506;10.400;2024-03-23T02:18:50;5.73;;;4.70;;
9422;SDS011;65863;49.506;10.400;2024-03-23T02:21:34;6.23;;;4.60;;
9422;SDS011;65863;49.506;10.400;2024-03-23T02:24:18;6.07;;;4.70;;
9422;SDS011;65863;49.506;10.400;2024-03-23T02:27:03;4.87;;;4.37;;
9422;SDS011;65863;49.506;10.400;2024-03-23T02:33:48;6.90;;;4.07;;
9422;SDS011;65863;49.506;10.400;2024-03-23T02:36:32;6.73;;;4.60;;
9422;SDS011;65863;49.506;10.400;2024-03-23T02:39:16;5.40;;;4.50;;
9422;SDS011;65863;49.506;10.400;2024-03-23T02:42:01;6.70;;;4.37;;
9422;SDS011;65863;49.506;10.400;2024-03-23T02:44:45;6.30;;;4.27;;
9422;SDS011;65863;49.506;10.400;2024-03-23T02:47:28;7.73;;;4.00;;
9422;SDS011;65863;49.506;10.400;2024-03-23T02:50:12;5.17;;;4.60;;
9422;SDS011;65863;49.506;10.400;2024-03-23T02:52:58;5.60;;;4.10;;
9422;SDS011;65863;49.506;10.400;2024-03-23T02:55:42;4.60;;;4.20;;
9422;SDS011;65863;49.506;10.400;2024-03-23T02:58:26;4.80;;;4.27;;
9422;SDS011;65863;49.506;10.400;2024-03-23T03:01:11;5.70;;;4.77;;
9422;SDS011;65863;49.506;10.400;2024-03-23T03:03:55;5.60;;;5.00;;
9422;SDS011;65863;49.506;10.400;2024-03-23T03:06:39;6.67;;;4.83;;
9422;SDS011;65863;49.506;10.400;2024-03-23T03:09:24;5.83;;;4.77;;
9422;SDS011;65863;49.506;10.400;2024-03-23T03:12:09;5.40;;;4.90;;
9422;SDS011;65863;49.506;10.400;2024-03-23T03:14:52;5.23;;;4.73;;
9422;SDS011;65863;49.506;10.400;2024-03-23T03:17:36;5.37;;;4.77;;
9422;SDS011;65863;49.506;10.400;2024-03-23T03:20:20;5.70;;;5.20;;
9422;SDS011;65863;49.506;10.400;2024-03-23T03:23:07;5.73;;;5.13;;
9422;SDS011;65863;49.506;10.400;2024-03-23T03:25:51;6.33;;;5.20;;
9422;SDS011;65863;49.506;10.400;2024-03-23T03:28:35;5.53;;;4.90;;
9422;SDS011;65863;49.506;10.400;2024-03-23T03:31:19;7.40;;;5.27;;
9422;SDS011;65863;49.506;10.400;2024-03-23T03:34:04;6.23;;;5.40;;
9422;SDS011;65863;49.506;10.400;2024-03-23T03:36:49;7.83;;;5.23;;
9422;SDS011;65863;49.506;10.400;2024-03-23T03:39:33;7.87;;;6.10;;
9422;SDS011;65863;49.506;10.400;2024-03-23T03:42:18;7.00;;;5.17;;
9422;SDS011;65863;49.506;10.400;2024-03-23T03:45:03;7.73;;;5.30;;
9422;SDS011;65863;49.506;10.400;2024-03-23T03:47:49;7.07;;;5.27;;
9422;SDS011;65863;49.506;10.400;2024-03-23T03:50:33;5.70;;;5.00;;
9422;SDS011;65863;49.506;10.400;2024-03-23T03:53:18;5.43;;;4.90;;
9422;SDS011;65863;49.506;10.400;2024-03-23T03:56:03;6.57;;;5.20;;
9422;SDS011;65863;49.506;10.400;2024-03-23T03:58:47;5.80;;;5.03;;
9422;SDS011;65863;49.506;10.400;2024-03-23T04:01:32;5.93;;;5.20;;
9422;SDS011;65863;49.506;10.400;2024-03-23T04:04:16;5.67;;;5.07;;
9422;SDS011;65863;49.506;10.400;2024-03-23T04:07:00;6.30;;;4.57;;
9422;SDS011;65863;49.506;10.400;2024-03-23T04:09:44;6.43;;;4.93;;
9422;SDS011;65863;49.506;10.400;2024-03-23T04:12:29;5.67;;;4.43;;
9422;SDS011;65863;49.506;10.400;2024-03-23T04:15:13;5.83;;;4.53;;
9422;SDS011;65863;49.506;10.400;2024-03-23T04:17:57;5.47;;;4.97;;
9422;SDS011;65863;49.506;10.400;2024-03-23T04:20:41;6.73;;;5.03;;
9422;SDS011;65863;49.506;10.400;2024-03-23T04:23:25;6.63;;;5.03;;
9422;SDS011;65863;49.506;10.400;2024-03-23T04:26:09;5.13;;;4.40;;
9422;SDS011;65863;49.506;10.400;2024-03-23T04:28:53;7.37;;;4.67;;
9422;SDS011;65863;49.506;10.400;2024-03-23T04:31:37;4.23;;;3.43;;
9422;SDS011;65863;49.506;10.400;2024-03-23T04:34:23;4.30;;;3.50;;
9422;SDS011;65863;49.506;10.400;2024-03-23T04:37:07;6.40;;;3.40;;
9422;SDS011;65863;49.506;10.400;2024-03-23T04:39:51;4.23;;;3.17;;
9422;SDS011;65863;49.506;10.400;2024-03-23T04:42:36;6.07;;;3.77;;
9422;SDS011;65863;49.506;10.400;2024-03-23T04:45:20;4.87;;;3.73;;
9422;SDS011;65863;49.506;10.400;2024-03-23T04:48:04;5.23;;;4.10;;
9422;SDS011;65863;49.506;10.400;2024-03-23T04:50:49;5.13;;;4.20;;
9422;SDS011;65863;49.506;10.400;2024-03-23T04:53:38;4.40;;;3.63;;
9422;SDS011;65863;49.506;10.400;2024-03-23T04:56:23;5.30;;;3.97;;
9422;SDS011;65863;49.506;10.400;2024-03-23T04:59:07;5.07;;;3.80;;
9422;SDS011;65863;49.506;10.400;2024-03-23T05:01:52;4.47;;;3.77;;
9422;SDS011;65863;49.506;10.400;2024-03-23T05:04:36;6.07;;;3.93;;
9422;SDS011;65863;49.506;10.400;2024-03-23T05:07:21;4.47;;;3.77;;
9422;SDS011;65863;49.506;10.400;2024-03-23T05:10:09;7.27;;;4.10;;
9422;SDS011;65863;49.506;10.400;2024-03-23T05:12:56;4.77;;;4.13;;
9422;SDS011;65863;49.506;10.400;2024-03-23T05:15:39;4.30;;;3.90;;
9422;SDS011;65863;49.506;10.400;2024-03-23T05:18:23;4.27;;;3.70;;
9422;SDS011;65863;49.506;10.400;2024-03-23T05:21:10;5.40;;;4.03;;
9422;SDS011;65863;49.506;10.400;2024-03-23T05:23:54;6.40;;;4.60;;
9422;SDS011;65863;49.506;10.400;2024-03-23T05:26:40;7.17;;;4.47;;
9422;SDS011;65863;49.506;10.400;2024-03-23T05:29:25;7.30;;;5.17;;
9422;SDS011;65863;49.506;10.400;2024-03-23T05:32:09;7.27;;;4.57;;
9422;SDS011;65863;49.506;10.400;2024-03-23T05:34:53;7.73;;;5.10;;
9422;SDS011;65863;49.506;10.400;2024-03-23T05:37:40;5.00;;;4.50;;
9422;SDS011;65863;49.506;10.400;2024-03-23T05:40:26;7.37;;;5.03;;
9422;SDS011;65863;49.506;10.400;2024-03-23T05:43:10;5.57;;;4.70;;
9422;SDS011;65863;49.506;10.400;2024-03-23T05:45:55;8.20;;;5.33;;
9422;SDS011;65863;49.506;10.400;2024-03-23T05:48:43;6.33;;;5.20;;
9422;SDS011;65863;49.506;10.400;2024-03-23T05:51:27;8.13;;;5.37;;
9422;SDS011;65863;49.506;10.400;2024-03-23T05:54:11;9.17;;;6.63;;
9422;SDS011;65863;49.506;10.400;2024-03-23T05:56:55;8.20;;;6.53;;
9422;SDS011;65863;49.506;10.400;2024-03-23T05:59:39;8.47;;;6.30;;
9422;SDS011;65863;49.506;10.400;2024-03-23T06:02:24;7.50;;;6.67;;
9422;SDS011;65863;49.506;10.400;2024-03-23T06:05:10;9.10;;;6.87;;
9422;SDS011;65863;49.506;10.400;2024-03-23T06:07:54;8.23;;;6.70;;
9422;SDS011;65863;49.506;10.400;2024-03-23T06:10:38;8.47;;;7.40;;
9422;SDS011;65863;49.506;10.400;2024-03-23T06:13:23;11.10;;;7.27;;
9422;SDS011;65863;49.506;10.400;2024-03-23T06:16:13;10.30;;;7.10;;
9422;SDS011;65863;49.506;10.400;2024-03-23T06:18:58;8.90;;;6.63;;
9422;SDS011;65863;49.506;10.400;2024-03-23T06:21:43;8.27;;;6.83;;
9422;SDS011;65863;49.506;10.400;2024-03-23T06:24:27;10.13;;;7.23;;
9422;SDS011;65863;49.506;10.400;2024-03-23T06:27:11;9.73;;;6.80;;
9422;SDS011;65863;49.506;10.400;2024-03-23T06:29:55;6.20;;;5.00;;
9422;SDS011;65863;49.506;10.400;2024-03-23T06:32:40;5.93;;;5.27;;
9422;SDS011;65863;49.506;10.400;2024-03-23T06:35:24;10.00;;;5.77;;
9422;SDS011;65863;49.506;10.400;2024-03-23T06:38:08;6.00;;;5.17;;
9422;SDS011;65863;49.506;10.400;2024-03-23T06:40:52;6.13;;;5.30;;
9422;SDS011;65863;49.506;10.400;2024-03-23T06:43:36;6.47;;;5.07;;
9422;SDS011;65863;49.506;10.400;2024-03-23T06:46:20;5.57;;;4.97;;
9422;SDS011;65863;49.506;10.400;2024-03-23T06:49:05;6.30;;;5.10;;
9422;SDS011;65863;49.506;10.400;2024-03-23T06:51:50;6.03;;;5.20;;
9422;SDS011;65863;49.506;10.400;2024-03-23T06:54:34;5.93;;;4.60;;
9422;SDS011;65863;49.506;10.400;2024-03-23T06:57:18;5.90;;;3.77;;
9422;SDS011;65863;49.506;10.400;2024-03-23T07:00:03;6.30;;;4.77;;
9422;SDS011;65863;49.506;10.400;2024-03-23T07:02:48;5.57;;;4.40;;
9422;SDS011;65863;49.506;10.400;2024-03-23T07:05:33;5.30;;;4.20;;
9422;SDS011;65863;49.506;10.400;2024-03-23T07:08:19;5.67;;;4.10;;
9422;SDS011;65863;49.506;10.400;2024-03-23T07:11:05;5.57;;;4.67;;
9422;SDS011;65863;49.506;10.400;2024-03-23T07:13:50;5.00;;;4.17;;
9422;SDS011;65863;49.506;10.400;2024-03-23T07:16:35;6.10;;;4.70;;
9422;SDS011;65863;49.506;10.400;2024-03-23T07:19:20;5.67;;;5.00;;
9422;SDS011;65863;49.506;10.400;2024-03-23T07:22:04;5.17;;;4.47;;
9422;SDS011;65863;49.506;10.400;2024-03-23T07:24:48;5.63;;;4.57;;
9422;SDS011;65863;49.506;10.400;2024-03-23T07:27:33;5.33;;;4.43;;
9422;SDS011;65863;49.506;10.400;2024-03-23T07:30:17;5.50;;;5.00;;
9422;SDS011;65863;49.506;10.400;2024-03-23T07:33:01;6.63;;;4.63;;
9422;SDS011;65863;49.506;10.400;2024-03-23T07:35:45;7.40;;;5.30;;
9422;SDS011;65863;49.506;10.400;2024-03-23T07:38:29;4.93;;;4.43;;
9422;SDS011;65863;49.506;10.400;2024-03-23T07:41:17;5.10;;;3.80;;
9422;SDS011;65863;49.506;10.400;2024-03-23T07:44:02;5.43;;;3.60;;
9422;SDS011;65863;49.506;10.400;2024-03-23T07:46:46;3.17;;;2.87;;
9422;SDS011;65863;49.506;10.400;2024-03-23T07:49:30;2.20;;;2.10;;
9422;SDS011;65863;49.506;10.400;2024-03-23T07:52:14;2.40;;;2.20;;
9422;SDS011;65863;49.506;10.400;2024-03-23T07:54:59;2.80;;;2.17;;
9422;SDS011;65863;49.506;10.400;2024-03-23T07:57:44;3.90;;;2.07;;
9422;SDS011;65863;49.506;10.400;2024-03-23T08:00:28;2.07;;;1.90;;
9422;SDS011;65863;49.506;10.400;2024-03-23T08:03:12;2.43;;;1.90;;
9422;SDS011;65863;49.506;10.400;2024-03-23T08:05:56;2.07;;;1.90;;
9422;SDS011;65863;49.506;10.400;2024-03-23T08:08:47;1.80;;;1.70;;
9422;SDS011;65863;49.506;10.400;2024-03-23T08:11:43;2.17;;;1.97;;
9422;SDS011;65863;49.506;10.400;2024-03-23T08:14:29;2.00;;;1.90;;
9422;SDS011;65863;49.506;10.400;2024-03-23T08:17:13;2.00;;;1.90;;
9422;SDS011;65863;49.506;10.400;2024-03-23T08:19:57;1.90;;;1.63;;
9422;SDS011;65863;49.506;10.400;2024-03-23T08:22:43;1.40;;;1.30;;
9422;SDS011;65863;49.506;10.400;2024-03-23T08:25:27;1.50;;;1.40;;
9422;SDS011;65863;49.506;10.400;2024-03-23T08:28:15;1.50;;;1.40;;
9422;SDS011;65863;49.506;10.400;2024-03-23T08:31:05;1.50;;;1.40;;
9422;SDS011;65863;49.506;10.400;2024-03-23T08:33:52;1.30;;;1.20;;
9422;SDS011;65863;49.506;10.400;2024-03-23T08:36:37;1.60;;;1.50;;
9422;SDS011;65863;49.506;10.400;2024-03-23T08:39:26;1.77;;;1.33;;
9422;SDS011;65863;49.506;10.400;2024-03-23T08:42:11;1.43;;;1.33;;
9422;SDS011;65863;49.506;10.400;2024-03-23T08:44:55;2.17;;;1.37;;
9422;SDS011;65863;49.506;10.400;2024-03-23T08:47:40;1.40;;;1.30;;
9422;SDS011;65863;49.506;10.400;2024-03-23T08:50:27;1.80;;;1.33;;
9422;SDS011;65863;49.506;10.400;2024-03-23T08:53:11;1.50;;;1.40;;
9422;SDS011;65863;49.506;10.400;2024-03-23T08:55:55;1.50;;;1.40;;
9422;SDS011;65863;49.506;10.400;2024-03-23T08:58:42;0.83;;;0.80;;
9422;SDS011;65863;49.506;10.400;2024-03-23T09:01:27;0.63;;;0.63;;
9422;SDS011;65863;49.506;10.400;2024-03-23T09:04:11;0.73;;;0.73;;
9422;SDS011;65863;49.506;10.400;2024-03-23T09:06:56;0.50;;;0.50;;
9422;SDS011;65863;49.506;10.400;2024-03-23T09:09:42;0.50;;;0.50;;
9422;SDS011;65863;49.506;10.400;2024-03-23T09:12:27;0.70;;;0.70;;
9422;SDS011;65863;49.506;10.400;2024-03-23T09:15:12;0.77;;;0.77;;
9422;SDS011;65863;49.506;10.400;2024-03-23T09:17:58;0.60;;;0.60;;
9422;SDS011;65863;49.506;10.400;2024-03-23T09:20:43;0.57;;;0.57;;
9422;SDS011;65863;49.506;10.400;2024-03-23T09:23:27;0.60;;;0.60;;
9422;SDS011;65863;49.506;10.400;2024-03-23T09:26:11;0.70;;;0.70;;
9422;SDS011;65863;49.506;10.400;2024-03-23T09:28:55;1.13;;;0.70;;
9422;SDS011;65863;49.506;10.400;2024-03-23T09:31:39;0.80;;;0.80;;
9422;SDS011;65863;49.506;10.400;2024-03-23T09:34:26;0.70;;;0.70;;
9422;SDS011;65863;49.506;10.400;2024-03-23T09:37:10;0.70;;;0.70;;
9422;SDS011;65863;49.506;10.400;2024-03-23T09:39:55;2.13;;;0.70;;
9422;SDS011;65863;49.506;10.400;2024-03-23T09:42:40;1.10;;;1.00;;
9422;SDS011;65863;49.506;10.400;2024-03-23T09:45:29;0.90;;;0.90;;
9422;SDS011;65863;49.506;10.400;2024-03-23T09:48:13;0.90;;;0.73;;
9422;SDS011;65863;49.506;10.400;2024-03-23T09:50:57;1.33;;;1.00;;
9422;SDS011;65863;49.506;10.400;2024-03-23T09:53:41;0.90;;;0.87;;
9422;SDS011;65863;49.506;10.400;2024-03-23T09:56:25;1.47;;;0.90;;
9422;SDS011;65863;49.506;10.400;2024-03-23T09:59:09;0.97;;;0.90;;
9422;SDS011;65863;49.506;10.400;2024-03-23T10:01:54;1.10;;;1.00;;
9422;SDS011;65863;49.506;10.400;2024-03-23T10:04:39;1.47;;;1.13;;
9422;SDS011;65863;49.506;10.400;2024-03-23T10:07:27;1.77;;;1.07;;
9422;SDS011;65863;49.506;10.400;2024-03-23T10:10:14;3.40;;;1.40;;
9422;SDS011;65863;49.506;10.400;2024-03-23T10:12:59;1.47;;;1.17;;
9422;SDS011;65863;49.506;10.400;2024-03-23T10:15:43;4.77;;;1.70;;
9422;SDS011;65863;49.506;10.400;2024-03-23T10:18:29;1.53;;;1.40;;
9422;SDS011;65863;49.506;10.400;2024-03-23T10:21:14;3.67;;;1.43;;
9422;SDS011;65863;49.506;10.400;2024-03-23T10:23:58;3.63;;;1.70;;
9422;SDS011;65863;49.506;10.400;2024-03-23T10:26:55;1.90;;;1.50;;
9422;SDS011;65863;49.506;10.400;2024-03-23T10:29:40;3.57;;;2.03;;
9422;SDS011;65863;49.506;10.400;2024-03-23T10:32:25;2.00;;;1.40;;
9422;SDS011;65863;49.506;10.400;2024-03-23T10:35:19;3.07;;;1.73;;
9422;SDS011;65863;49.506;10.400;2024-03-23T10:38:07;2.93;;;1.43;;
9422;SDS011;65863;49.506;10.400;2024-03-23T10:40:53;2.47;;;1.70;;
9422;SDS011;65863;49.506;10.400;2024-03-23T10:43:38;2.13;;;1.83;;
9422;SDS011;65863;49.506;10.400;2024-03-23T10:46:23;3.63;;;1.73;;
9422;SDS011;65863;49.506;10.400;2024-03-23T10:49:07;2.33;;;1.63;;
9422;SDS011;65863;49.506;10.400;2024-03-23T10:51:51;4.20;;;1.53;;
9422;SDS011;65863;49.506;10.400;2024-03-23T10:54:36;3.70;;;1.40;;
9422;SDS011;65863;49.506;10.400;2024-03-23T10:57:26;3.50;;;1.80;;
9422;SDS011;65863;49.506;10.400;2024-03-23T11:00:15;3.83;;;2.07;;
9422;SDS011;65863;49.506;10.400;2024-03-23T11:15:13;5.40;;;2.30;;
9422;SDS011;65863;49.506;10.400;2024-03-23T11:18:04;3.83;;;1.77;;
9422;SDS011;65863;49.506;10.400;2024-03-23T11:20:52;3.90;;;1.67;;
9422;SDS011;65863;49.506;10.400;2024-03-23T11:23:39;6.30;;;2.70;;
9422;SDS011;65863;49.506;10.400;2024-03-23T11:26:23;4.83;;;2.27;;
9422;SDS011;65863;49.506;10.400;2024-03-23T11:29:12;2.30;;;1.80;;
9422;SDS011;65863;49.506;10.400;2024-03-23T11:31:57;3.27;;;1.87;;
9422;SDS011;65863;49.506;10.400;2024-03-23T11:34:42;3.97;;;2.20;;
9422;SDS011;65863;49.506;10.400;2024-03-23T11:37:26;5.10;;;2.53;;
9422;SDS011;65863;49.506;10.400;2024-03-23T11:40:17;6.60;;;2.60;;
9422;SDS011;65863;49.506;10.400;2024-03-23T11:43:02;5.03;;;2.70;;
9422;SDS011;65863;49.506;10.400;2024-03-23T11:45:51;7.03;;;3.23;;
9422;SDS011;65863;49.506;10.400;2024-03-23T11:48:38;12.50;;;7.60;;
9422;SDS011;65863;49.506;10.400;2024-03-23T11:51:22;5.73;;;3.13;;
9422;SDS011;65863;49.506;10.400;2024-03-23T11:54:09;4.57;;;2.73;;
9422;SDS011;65863;49.506;10.400;2024-03-23T11:56:55;5.97;;;4.57;;
9422;SDS011;65863;49.506;10.400;2024-03-23T11:59:47;3.90;;;2.70;;
9422;SDS011;65863;49.506;10.400;2024-03-23T12:02:31;4.50;;;2.40;;
9422;SDS011;65863;49.506;10.400;2024-03-23T12:05:15;7.33;;;4.50;;
9422;SDS011;65863;49.506;10.400;2024-03-23T12:11:13;6.40;;;2.63;;
9422;SDS011;65863;49.506;10.400;2024-03-23T12:13:59;6.13;;;2.20;;
9422;SDS011;65863;49.506;10.400;2024-03-23T12:16:45;3.47;;;2.07;;
9422;SDS011;65863;49.506;10.400;2024-03-23T12:19:29;4.60;;;1.90;;
9422;SDS011;65863;49.506;10.400;2024-03-23T12:22:13;4.70;;;2.23;;
9422;SDS011;65863;49.506;10.400;2024-03-23T12:24:58;5.07;;;2.43;;
9422;SDS011;65863;49.506;10.400;2024-03-23T12:27:43;5.50;;;2.33;;
9422;SDS011;65863;49.506;10.400;2024-03-23T12:30:27;4.27;;;2.10;;
9422;SDS011;65863;49.506;10.400;2024-03-23T12:33:11;5.77;;;2.20;;
9422;SDS011;65863;49.506;10.400;2024-03-23T12:35:56;8.40;;;2.33;;
9422;SDS011;65863;49.506;10.400;2024-03-23T12:38:40;5.70;;;2.37;;
9422;SDS011;65863;49.506;10.400;2024-03-23T12:41:24;3.50;;;1.70;;
9422;SDS011;65863;49.506;10.400;2024-03-23T12:44:08;3.57;;;2.10;;
9422;SDS011;65863;49.506;10.400;2024-03-23T12:46:55;8.20;;;2.20;;
9422;SDS011;65863;49.506;10.400;2024-03-23T12:49:39;3.90;;;2.00;;
9422;SDS011;65863;49.506;10.400;2024-03-23T12:52:23;6.37;;;2.10;;
9422;SDS011;65863;49.506;10.400;2024-03-23T12:55:14;5.90;;;2.53;;
9422;SDS011;65863;49.506;10.400;2024-03-23T12:57:58;3.67;;;1.77;;
9422;SDS011;65863;49.506;10.400;2024-03-23T13:00:42;3.70;;;2.03;;
9422;SDS011;65863;49.506;10.400;2024-03-23T13:03:26;2.63;;;1.80;;
9422;SDS011;65863;49.506;10.400;2024-03-23T13:06:10;3.47;;;1.80;;
9422;SDS011;65863;49.506;10.400;2024-03-23T13:08:54;4.50;;;2.20;;
9422;SDS011;65863;49.506;10.400;2024-03-23T13:11:38;4.70;;;1.90;;
9422;SDS011;65863;49.506;10.400;2024-03-23T13:14:22;3.27;;;1.77;;
9422;SDS011;65863;49.506;10.400;2024-03-23T13:17:07;5.70;;;2.10;;
9422;SDS011;65863;49.506;10.400;2024-03-23T13:19:53;5.27;;;2.10;;
9422;SDS011;65863;49.506;10.400;2024-03-23T13:22:40;3.77;;;1.80;;
9422;SDS011;65863;49.506;10.400;2024-03-23T13:25:25;4.93;;;1.93;;
9422;SDS011;65863;49.506;10.400;2024-03-23T13:28:09;4.33;;;2.57;;
9422;SDS011;65863;49.506;10.400;2024-03-23T13:30:54;3.47;;;1.80;;
9422;SDS011;65863;49.506;10.400;2024-03-23T13:33:38;5.13;;;2.33;;
9422;SDS011;65863;49.506;10.400;2024-03-23T13:36:25;3.63;;;2.00;;
9422;SDS011;65863;49.506;10.400;2024-03-23T13:39:10;7.37;;;2.57;;
9422;SDS011;65863;49.506;10.400;2024-03-23T13:41:57;4.23;;;1.70;;
9422;SDS011;65863;49.506;10.400;2024-03-23T13:44:42;4.27;;;2.00;;
9422;SDS011;65863;49.506;10.400;2024-03-23T13:47:26;6.00;;;1.87;;
9422;SDS011;65863;49.506;10.400;2024-03-23T13:50:11;3.27;;;1.87;;
9422;SDS011;65863;49.506;10.400;2024-03-23T13:52:56;4.20;;;1.80;;
9422;SDS011;65863;49.506;10.400;2024-03-23T13:55:47;4.50;;;1.97;;
9422;SDS011;65863;49.506;10.400;2024-03-23T13:58:34;3.73;;;1.80;;
9422;SDS011;65863;49.506;10.400;2024-03-23T14:01:18;1.80;;;1.47;;
9422;SDS011;65863;49.506;10.400;2024-03-23T14:04:02;2.10;;;1.70;;
9422;SDS011;65863;49.506;10.400;2024-03-23T14:06:46;4.80;;;2.10;;
9422;SDS011;65863;49.506;10.400;2024-03-23T14:09:30;5.20;;;2.80;;
9422;SDS011;65863;49.506;10.400;2024-03-23T14:12:16;3.50;;;1.70;;
9422;SDS011;65863;49.506;10.400;2024-03-23T14:15:00;2.67;;;1.90;;
9422;SDS011;65863;49.506;10.400;2024-03-23T14:17:47;3.73;;;2.30;;
9422;SDS011;65863;49.506;10.400;2024-03-23T14:20:35;4.13;;;2.50;;
9422;SDS011;65863;49.506;10.400;2024-03-23T14:23:18;4.97;;;2.70;;
9422;SDS011;65863;49.506;10.400;2024-03-23T14:26:03;4.63;;;3.00;;
9422;SDS011;65863;49.506;10.400;2024-03-23T14:28:48;3.03;;;2.20;;
9422;SDS011;65863;49.506;10.400;2024-03-23T14:31:34;5.87;;;2.77;;
9422;SDS011;65863;49.506;10.400;2024-03-23T14:34:17;5.77;;;3.23;;
9422;SDS011;65863;49.506;10.400;2024-03-23T14:37:01;8.10;;;3.23;;
9422;SDS011;65863;49.506;10.400;2024-03-23T14:39:45;4.87;;;3.13;;
9422;SDS011;65863;49.506;10.400;2024-03-23T14:42:29;3.90;;;2.20;;
9422;SDS011;65863;49.506;10.400;2024-03-23T14:45:15;3.87;;;2.23;;
9422;SDS011;65863;49.506;10.400;2024-03-23T14:47:59;9.03;;;5.03;;
9422;SDS011;65863;49.506;10.400;2024-03-23T14:50:44;4.47;;;2.67;;
9422;SDS011;65863;49.506;10.400;2024-03-23T14:53:30;3.20;;;1.77;;
9422;SDS011;65863;49.506;10.400;2024-03-23T14:56:23;5.23;;;1.80;;
9422;SDS011;65863;49.506;10.400;2024-03-23T14:59:08;2.00;;;1.20;;
9422;SDS011;65863;49.506;10.400;2024-03-23T15:01:52;3.70;;;1.60;;
9422;SDS011;65863;49.506;10.400;2024-03-23T15:04:37;4.00;;;1.73;;
9422;SDS011;65863;49.506;10.400;2024-03-23T15:07:21;3.50;;;1.37;;
9422;SDS011;65863;49.506;10.400;2024-03-23T15:10:06;1.93;;;1.30;;
9422;SDS011;65863;49.506;10.400;2024-03-23T15:12:51;4.40;;;1.57;;
9422;SDS011;65863;49.506;10.400;2024-03-23T15:15:38;2.37;;;1.40;;
9422;SDS011;65863;49.506;10.400;2024-03-23T15:18:25;2.10;;;1.50;;
9422;SDS011;65863;49.506;10.400;2024-03-23T15:21:10;2.50;;;1.43;;
9422;SDS011;65863;49.506;10.400;2024-03-23T15:23:55;2.23;;;1.50;;
9422;SDS011;65863;49.506;10.400;2024-03-23T15:26:39;2.13;;;1.50;;
9422;SDS011;65863;49.506;10.400;2024-03-23T15:29:25;2.20;;;1.77;;
9422;SDS011;65863;49.506;10.400;2024-03-23T15:32:09;1.50;;;1.40;;
9422;SDS011;65863;49.506;10.400;2024-03-23T15:34:53;2.70;;;1.10;;
9422;SDS011;65863;49.506;10.400;2024-03-23T15:37:37;1.93;;;1.30;;
9422;SDS011;65863;49.506;10.400;2024-03-23T15:40:23;2.87;;;1.13;;
9422;SDS011;65863;49.506;10.400;2024-03-23T15:43:07;1.50;;;1.10;;
9422;SDS011;65863;49.506;10.400;2024-03-23T15:45:54;2.43;;;1.20;;
9422;SDS011;65863;49.506;10.400;2024-03-23T15:48:48;2.37;;;1.00;;
9422;SDS011;65863;49.506;10.400;2024-03-23T15:51:33;2.30;;;0.90;;
9422;SDS011;65863;49.506;10.400;2024-03-23T15:54:18;0.77;;;0.77;;
9422;SDS011;65863;49.506;10.400;2024-03-23T15:57:02;1.10;;;0.80;;
9422;SDS011;65863;49.506;10.400;2024-03-23T15:59:46;1.43;;;0.90;;
9422;SDS011;65863;49.506;10.400;2024-03-23T16:02:30;2.77;;;1.00;;
9422;SDS011;65863;49.506;10.400;2024-03-23T16:05:14;0.90;;;0.80;;
9422;SDS011;65863;49.506;10.400;2024-03-23T16:07:58;1.97;;;0.90;;
9422;SDS011;65863;49.506;10.400;2024-03-23T16:10:42;1.27;;;0.70;;
9422;SDS011;65863;49.506;10.400;2024-03-23T16:13:26;1.33;;;0.50;;
9422;SDS011;65863;49.506;10.400;2024-03-23T16:16:12;0.77;;;0.67;;
9422;SDS011;65863;49.506;10.400;2024-03-23T16:18:56;0.63;;;0.63;;
9422;SDS011;65863;49.506;10.400;2024-03-23T16:21:41;2.70;;;1.23;;
9422;SDS011;65863;49.506;10.400;2024-03-23T16:24:25;0.80;;;0.80;;
9422;SDS011;65863;49.506;10.400;2024-03-23T16:27:12;2.33;;;1.00;;
9422;SDS011;65863;49.506;10.400;2024-03-23T16:29:57;0.70;;;0.70;;
9422;SDS011;65863;49.506;10.400;2024-03-23T16:32:44;2.00;;;0.90;;
9422;SDS011;65863;49.506;10.400;2024-03-23T16:35:28;0.90;;;0.70;;
9422;SDS011;65863;49.506;10.400;2024-03-23T16:38:17;1.27;;;0.90;;
9422;SDS011;65863;49.506;10.400;2024-03-23T16:41:04;2.30;;;0.87;;
9422;SDS011;65863;49.506;10.400;2024-03-23T16:43:49;1.47;;;1.00;;
9422;SDS011;65863;49.506;10.400;2024-03-23T16:46:34;1.93;;;0.93;;
9422;SDS011;65863;49.506;10.400;2024-03-23T16:49:23;0.93;;;0.83;;
9422;SDS011;65863;49.506;10.400;2024-03-23T16:52:08;1.17;;;1.07;;
9422;SDS011;65863;49.506;10.400;2024-03-23T16:54:53;2.67;;;1.00;;
9422;SDS011;65863;49.506;10.400;2024-03-23T16:57:38;0.93;;;0.57;;
9422;SDS011;65863;49.506;10.400;2024-03-23T17:00:24;2.00;;;1.00;;
9422;SDS011;65863;49.506;10.400;2024-03-23T17:03:08;0.97;;;0.97;;
9422;SDS011;65863;49.506;10.400;2024-03-23T17:05:52;1.50;;;1.10;;
9422;SDS011;65863;49.506;10.400;2024-03-23T17:08:37;1.07;;;0.90;;
9422;SDS011;65863;49.506;10.400;2024-03-23T17:11:21;2.70;;;0.87;;
9422;SDS011;65863;49.506;10.400;2024-03-23T17:14:05;2.37;;;1.20;;
9422;SDS011;65863;49.506;10.400;2024-03-23T17:16:50;3.40;;;1.17;;
9422;SDS011;65863;49.506;10.400;2024-03-23T17:19:35;1.13;;;0.97;;
9422;SDS011;65863;49.506;10.400;2024-03-23T17:22:19;2.00;;;1.10;;
9422;SDS011;65863;49.506;10.400;2024-03-23T17:25:03;2.30;;;1.17;;
9422;SDS011;65863;49.506;10.400;2024-03-23T17:27:47;0.63;;;0.60;;
9422;SDS011;65863;49.506;10.400;2024-03-23T17:30:31;2.40;;;1.43;;
9422;SDS011;65863;49.506;10.400;2024-03-23T17:33:16;1.07;;;0.90;;
9422;SDS011;65863;49.506;10.400;2024-03-23T17:36:02;1.57;;;0.70;;
9422;SDS011;65863;49.506;10.400;2024-03-23T17:38:47;2.43;;;1.00;;
9422;SDS011;65863;49.506;10.400;2024-03-23T17:41:30;2.30;;;1.00;;
9422;SDS011;65863;49.506;10.400;2024-03-23T17:44:16;1.23;;;0.80;;
9422;SDS011;65863;49.506;10.400;2024-03-23T17:47:00;1.40;;;0.93;;